East Coast — WBI4636 — position and weather

sailwx.info

Track history (hours):
 
Tides and Currents Weather Stations Pressure Air Temp Water Temp Dewpoint Dewpoint Depression Visibility Wind Speed Wind Dir Waves Ship Positions

East Coast

Owner: FLA DEL MAR INC, CHESAPEAKE CITY, MD. More information available from US FCC via Universal Licensing System and Coast Guard Vessel Documentation Center.

Last reported at 2018-Apr-20 04:08 UTC. Time now 2018-Apr-20 18:44 UTC.
Position N 40°56' W 073°54'.

Type: Tow > 200 m length. MMSI: 15184.

Date/timePositionNaut miles runAvg speedWind from/ knotsBaromVisibWave heightAir tempDewpointWater temp
2018-Apr-20 04:08N 40°56' W 073°54'0 0.0
2018-Apr-20 03:59N 40°56' W 073°54'0 0.0
2018-Apr-20 03:17N 40°56' W 073°54'0 0.0
2018-Apr-20 01:40N 40°56' W 073°54'210.3
2018-Apr-20 01:30N 40°54' W 073°55'510.5
2018-Apr-20 01:00N 40°49' W 073°58'5 9.8
2018-Apr-20 00:30N 40°45' W 074°01'4 8.9
2018-Apr-20 00:00N 40°41' W 074°02'4 8.5
2018-Apr-19 23:29N 40°39' W 074°07'3 7.0
2018-Apr-19 23:00N 40°38' W 074°12'0 0.0
2018-Apr-19 22:27N 40°38' W 074°12'0 0.0
2018-Apr-19 21:57N 40°38' W 074°12'0 0.0
2018-Apr-19 21:28N 40°38' W 074°12'0 0.0
2018-Apr-19 20:58N 40°38' W 074°12'0 0.0
2018-Apr-19 20:28N 40°38' W 074°12'0 0.0
2018-Apr-19 19:58N 40°38' W 074°12'0 0.0
2018-Apr-19 19:19N 40°38' W 074°12'0 0.0
2018-Apr-19 18:57N 40°38' W 074°12'0 0.0
2018-Apr-19 18:25N 40°38' W 074°12'0 0.0
2018-Apr-19 18:01N 40°38' W 074°12'0 0.0
2018-Apr-19 17:30N 40°38' W 074°12'0 0.0
2018-Apr-19 15:52N 40°38' W 074°12'1 3.5
2018-Apr-19 15:27N 40°38' W 074°10'0 0.0
2018-Apr-19 14:57N 40°38' W 074°10'0 0.0
2018-Apr-19 14:21N 40°39' W 074°10'2 5.7
2018-Apr-19 14:00N 40°39' W 074°07'0 0.4
2018-Apr-19 13:29N 40°39' W 074°07'0 0.0
2018-Apr-19 12:53N 40°39' W 074°07'0 0.0
2018-Apr-19 12:29N 40°39' W 074°07'0 0.0
2018-Apr-19 11:59N 40°39' W 074°07'2 3.3
2018-Apr-19 11:30N 40°39' W 074°05'510.2
2018-Apr-19 11:00N 40°43' W 074°01'713.0
2018-Apr-19 10:30N 40°49' W 073°58'7 0.4
2018-Apr-18 15:42N 40°56' W 073°54'0 0.0
2018-Apr-17 11:27N 40°56' W 073°54'  
2018-Apr-12 21:08N 40°57' W 073°55'0 0.3
2018-Apr-12 20:59N 40°57' W 073°55'0 0.1
2018-Apr-12 20:11N 40°57' W 073°55'0 0.0
2018-Apr-12 19:48N 40°57' W 073°55'0 0.1
2018-Apr-12 19:25N 40°57' W 073°55'1 0.9
2018-Apr-12 17:43N 40°55' W 073°55'1 4.7
2018-Apr-12 17:30N 40°54' W 073°55'2 3.7
2018-Apr-12 17:00N 40°53' W 073°56'2 4.2
2018-Apr-12 16:30N 40°51' W 073°57'2 4.3
2018-Apr-12 16:00N 40°49' W 073°58'2 4.5
2018-Apr-12 15:30N 40°47' W 073°60'2 5.0
2018-Apr-12 15:00N 40°44' W 074°01'3 5.6
2018-Apr-12 14:30N 40°42' W 074°02'3 5.7
2018-Apr-12 14:00N 40°39' W 074°03'3 5.7
2018-Apr-12 13:29N 40°36' W 074°02'1 2.6
2018-Apr-12 13:00N 40°35' W 074°02'0 0.1
2018-Apr-12 12:30N 40°35' W 074°02'1 1.0
2018-Apr-12 12:00N 40°34' W 074°02'2 4.3
2018-Apr-12 11:30N 40°32' W 074°01'3 5.4
2018-Apr-12 11:00N 40°31' W 073°58'46 6.3
2018-Apr-12 03:39N 39°45' W 073°58'2 6.7
2018-Apr-12 03:25N 39°43' W 073°59'3 6.7
2018-Apr-12 02:57N 39°40' W 074°01'3 6.6
2018-Apr-12 02:27N 39°38' W 074°03'3 6.5
2018-Apr-12 01:57N 39°35' W 074°05'  
Track history (hours):
 
Tides and Currents Weather Stations Pressure Air Temp Water Temp Dewpoint Dewpoint Depression Visibility Wind Speed Wind Dir Waves Ship Positions

East Coast

Owner: FLA DEL MAR INC, CHESAPEAKE CITY, MD. More information available from US FCC via Universal Licensing System and Coast Guard Vessel Documentation Center.

Last reported at 2018-Apr-20 04:08 UTC. Time now 2018-Apr-20 18:44 UTC.
Position N 40°56' W 073°54'.

Type: Tow > 200 m length. MMSI: 15184.

Date/timePositionNaut miles runAvg speedWind from/ knotsBaromVisibWave heightAir tempDewpointWater temp
2018-Apr-20 04:08N 40°56' W 073°54'0 0.0
2018-Apr-20 03:59N 40°56' W 073°54'0 0.0
2018-Apr-20 03:17N 40°56' W 073°54'0 0.0
2018-Apr-20 01:40N 40°56' W 073°54'210.3
2018-Apr-20 01:30N 40°54' W 073°55'510.5
2018-Apr-20 01:00N 40°49' W 073°58'5 9.8
2018-Apr-20 00:30N 40°45' W 074°01'4 8.9
2018-Apr-20 00:00N 40°41' W 074°02'4 8.5
2018-Apr-19 23:29N 40°39' W 074°07'3 7.0
2018-Apr-19 23:00N 40°38' W 074°12'0 0.0
2018-Apr-19 22:27N 40°38' W 074°12'0 0.0
2018-Apr-19 21:57N 40°38' W 074°12'0 0.0
2018-Apr-19 21:28N 40°38' W 074°12'0 0.0
2018-Apr-19 20:58N 40°38' W 074°12'0 0.0
2018-Apr-19 20:28N 40°38' W 074°12'0 0.0
2018-Apr-19 19:58N 40°38' W 074°12'0 0.0
2018-Apr-19 19:19N 40°38' W 074°12'0 0.0
2018-Apr-19 18:57N 40°38' W 074°12'0 0.0
2018-Apr-19 18:25N 40°38' W 074°12'0 0.0
2018-Apr-19 18:01N 40°38' W 074°12'0 0.0
2018-Apr-19 17:30N 40°38' W 074°12'0 0.0
2018-Apr-19 15:52N 40°38' W 074°12'1 3.5
2018-Apr-19 15:27N 40°38' W 074°10'0 0.0
2018-Apr-19 14:57N 40°38' W 074°10'0 0.0
2018-Apr-19 14:21N 40°39' W 074°10'2 5.7
2018-Apr-19 14:00N 40°39' W 074°07'0 0.4
2018-Apr-19 13:29N 40°39' W 074°07'0 0.0
2018-Apr-19 12:53N 40°39' W 074°07'0 0.0
2018-Apr-19 12:29N 40°39' W 074°07'0 0.0
2018-Apr-19 11:59N 40°39' W 074°07'2 3.3
2018-Apr-19 11:30N 40°39' W 074°05'510.2
2018-Apr-19 11:00N 40°43' W 074°01'713.0
2018-Apr-19 10:30N 40°49' W 073°58'7 0.4
2018-Apr-18 15:42N 40°56' W 073°54'0 0.0
2018-Apr-17 11:27N 40°56' W 073°54'  
2018-Apr-12 21:08N 40°57' W 073°55'0 0.3
2018-Apr-12 20:59N 40°57' W 073°55'0 0.1
2018-Apr-12 20:11N 40°57' W 073°55'0 0.0
2018-Apr-12 19:48N 40°57' W 073°55'0 0.1
2018-Apr-12 19:25N 40°57' W 073°55'1 0.9
2018-Apr-12 17:43N 40°55' W 073°55'1 4.7
2018-Apr-12 17:30N 40°54' W 073°55'2 3.7
2018-Apr-12 17:00N 40°53' W 073°56'2 4.2
2018-Apr-12 16:30N 40°51' W 073°57'2 4.3
2018-Apr-12 16:00N 40°49' W 073°58'2 4.5
2018-Apr-12 15:30N 40°47' W 073°60'2 5.0
2018-Apr-12 15:00N 40°44' W 074°01'3 5.6
2018-Apr-12 14:30N 40°42' W 074°02'3 5.7
2018-Apr-12 14:00N 40°39' W 074°03'3 5.7
2018-Apr-12 13:29N 40°36' W 074°02'1 2.6
2018-Apr-12 13:00N 40°35' W 074°02'0 0.1
2018-Apr-12 12:30N 40°35' W 074°02'1 1.0
2018-Apr-12 12:00N 40°34' W 074°02'2 4.3
2018-Apr-12 11:30N 40°32' W 074°01'3 5.4
2018-Apr-12 11:00N 40°31' W 073°58'46 6.3
2018-Apr-12 03:39N 39°45' W 073°58'2 6.7
2018-Apr-12 03:25N 39°43' W 073°59'3 6.7
2018-Apr-12 02:57N 39°40' W 074°01'3 6.6
2018-Apr-12 02:27N 39°38' W 074°03'3 6.5
2018-Apr-12 01:57N 39°35' W 074°05'  

Dump ship's entire track history